createdAt,value
2023-04-20T00:01:28.362Z,99779.00
2023-04-20T00:03:57.063Z,99781.00
2023-04-20T00:06:29.495Z,99779.00
2023-04-20T00:08:57.846Z,99779.00
2023-04-20T00:11:26.592Z,99779.00
2023-04-20T00:13:54.554Z,99775.00
2023-04-20T00:16:22.512Z,99778.00
2023-04-20T00:18:51.533Z,99772.00
2023-04-20T00:21:21.880Z,99774.00
2023-04-20T00:23:51.797Z,99758.00
2023-04-20T00:26:21.165Z,99771.00
2023-04-20T00:28:53.054Z,99771.00
2023-04-20T00:31:21.700Z,99768.00
2023-04-20T00:33:49.704Z,99771.00
2023-04-20T00:36:17.776Z,99769.00
2023-04-20T00:38:45.732Z,99766.00
2023-04-20T00:41:15.008Z,99772.00
2023-04-20T00:43:52.206Z,99769.00
2023-04-20T00:46:20.771Z,99760.00
2023-04-20T00:48:50.859Z,99766.00
2023-04-20T00:51:20.290Z,99762.00
2023-04-20T00:53:48.450Z,99751.00
2023-04-20T00:56:19.168Z,99765.00
2023-04-20T00:58:47.661Z,99764.00
2023-04-20T01:01:17.500Z,99760.00
2023-04-20T01:03:47.941Z,99754.00
2023-04-20T01:06:16.611Z,99755.00
2023-04-20T01:08:49.873Z,99759.00
2023-04-20T01:11:19.426Z,99754.00
2023-04-20T01:13:47.522Z,99755.00
2023-04-20T01:16:15.525Z,99750.00
2023-04-20T01:18:47.278Z,99748.00
2023-04-20T01:21:18.516Z,99758.00
2023-04-20T01:23:47.866Z,99749.00
2023-04-20T01:26:18.486Z,99754.00
2023-04-20T01:28:51.726Z,99747.00
2023-04-20T01:31:20.040Z,99744.00
2023-04-20T01:33:47.990Z,99749.00
2023-04-20T01:36:16.094Z,99744.00
2023-04-20T01:38:47.514Z,99749.00
2023-04-20T01:41:15.524Z,99750.00
2023-04-20T01:43:43.463Z,99745.00
2023-04-20T01:46:13.497Z,99747.00
2023-04-20T01:48:41.421Z,99748.00
2023-04-20T01:51:09.872Z,99744.00
2023-04-20T01:53:37.769Z,99753.00
2023-04-20T01:56:07.541Z,99741.00
2023-04-20T01:58:35.681Z,99750.00
2023-04-20T02:01:04.232Z,99742.00
2023-04-20T02:03:32.461Z,99733.00
2023-04-20T02:06:00.721Z,99738.00
2023-04-20T02:08:31.069Z,99728.00
2023-04-20T02:10:58.983Z,99738.00
2023-04-20T02:13:28.393Z,99724.00
2023-04-20T02:15:57.007Z,99730.00
2023-04-20T02:18:25.441Z,99729.00
2023-04-20T02:20:53.383Z,99731.00
2023-04-20T02:23:21.285Z,99729.00
2023-04-20T02:25:49.202Z,99734.00
2023-04-20T02:28:17.105Z,99733.00
2023-04-20T02:30:46.300Z,99734.00
2023-04-20T02:33:14.360Z,99733.00
2023-04-20T02:35:42.239Z,99734.00
2023-04-20T02:38:12.048Z,99735.00
2023-04-20T02:40:40.348Z,99728.00
2023-04-20T02:43:08.470Z,99730.00
2023-04-20T02:45:36.924Z,99735.00
2023-04-20T02:48:07.331Z,99737.00
2023-04-20T02:50:37.949Z,99740.00
2023-04-20T02:53:13.890Z,99742.00
2023-04-20T02:55:42.338Z,99735.00
2023-04-20T02:58:21.469Z,99738.00
2023-04-20T03:01:10.346Z,99733.00
2023-04-20T03:03:40.929Z,99732.00
2023-04-20T03:06:12.234Z,99729.00
2023-04-20T03:08:42.644Z,99732.00
2023-04-20T03:11:29.063Z,99739.00
2023-04-20T03:13:58.137Z,99736.00
2023-04-20T03:16:26.172Z,99738.00
2023-04-20T03:18:57.893Z,99736.00
2023-04-20T03:21:26.542Z,99742.00
2023-04-20T03:23:54.422Z,99738.00
2023-04-20T03:26:22.312Z,99736.00
2023-04-20T03:29:07.996Z,99742.00
2023-04-20T03:31:36.279Z,99746.00
2023-04-20T03:34:06.314Z,99746.00
2023-04-20T03:36:34.288Z,99743.00
2023-04-20T03:39:02.131Z,99738.00
2023-04-20T03:41:31.504Z,99737.00
2023-04-20T03:43:59.389Z,99739.00
2023-04-20T03:46:27.519Z,99743.00
2023-04-20T03:48:55.411Z,99735.00
2023-04-20T03:51:26.327Z,99745.00
2023-04-20T03:53:54.241Z,99742.00
2023-04-20T03:56:22.069Z,99747.00
2023-04-20T03:58:51.093Z,99749.00
2023-04-20T04:01:23.192Z,99754.00
2023-04-20T04:03:51.738Z,99754.00
2023-04-20T04:06:19.835Z,99753.00
2023-04-20T04:08:49.346Z,99750.00
2023-04-20T04:11:17.506Z,99760.00
2023-04-20T04:13:45.497Z,99750.00
2023-04-20T04:16:13.767Z,99750.00
2023-04-20T04:18:44.689Z,99753.00
2023-04-20T04:21:12.736Z,99761.00
2023-04-20T04:23:44.534Z,99753.00
2023-04-20T04:26:24.577Z,99753.00
2023-04-20T04:28:53.839Z,99739.00
2023-04-20T04:31:23.443Z,99757.00
2023-04-20T04:33:52.491Z,99764.00
2023-04-20T04:36:29.226Z,99761.00
2023-04-20T04:38:59.262Z,99759.00
2023-04-20T04:41:29.357Z,99767.00
2023-04-20T04:44:08.862Z,99767.00
2023-04-20T04:46:37.660Z,99760.00
2023-04-20T04:49:05.842Z,99770.00
2023-04-20T04:51:33.756Z,99757.00
2023-04-20T04:54:01.609Z,99770.00
2023-04-20T04:56:30.797Z,99777.00
2023-04-20T04:58:58.685Z,99786.00
2023-04-20T05:01:26.620Z,99784.00
2023-04-20T05:03:54.701Z,99790.00
2023-04-20T05:06:22.768Z,99786.00
2023-04-20T05:08:50.786Z,99783.00
2023-04-20T05:11:18.683Z,99796.00
2023-04-20T05:13:48.500Z,99803.00
2023-04-20T05:16:16.477Z,99807.00
2023-04-20T05:18:44.325Z,99811.00
2023-04-20T05:21:12.201Z,99810.00
2023-04-20T05:23:40.133Z,99805.00
2023-04-20T05:26:08.004Z,99817.00
2023-04-20T05:28:35.958Z,99813.00
2023-04-20T05:31:06.449Z,99807.00
2023-04-20T05:33:34.286Z,99817.00
2023-04-20T05:36:02.128Z,99825.00
2023-04-20T05:38:30.348Z,99825.00
2023-04-20T05:40:58.170Z,99828.00
2023-04-20T05:43:26.128Z,99835.00
2023-04-20T05:45:54.099Z,99835.00
2023-04-20T05:48:23.300Z,99837.00
2023-04-20T05:50:51.122Z,99820.00
2023-04-20T05:53:19.356Z,99836.00
2023-04-20T05:55:47.229Z,99826.00
2023-04-20T05:58:15.828Z,99829.00
2023-04-20T06:00:44.335Z,99836.00
2023-04-20T06:03:12.534Z,99837.00
2023-04-20T06:05:41.874Z,99836.00
2023-04-20T06:08:09.793Z,99842.00
2023-04-20T06:10:37.713Z,99846.00
2023-04-20T06:13:05.823Z,99842.00
2023-04-20T06:15:33.719Z,99841.00
2023-04-20T06:18:01.883Z,99852.00
2023-04-20T06:20:29.902Z,99848.00
2023-04-20T06:22:59.169Z,99844.00
2023-04-20T06:25:27.653Z,99840.00
2023-04-20T06:27:55.520Z,99848.00
2023-04-20T06:30:23.928Z,99852.00
2023-04-20T06:32:51.880Z,99847.00
2023-04-20T06:35:19.963Z,99844.00
2023-04-20T06:37:47.832Z,99843.00
2023-04-20T06:40:17.452Z,99848.00
2023-04-20T06:42:45.603Z,99857.00
2023-04-20T06:45:13.455Z,99847.00
2023-04-20T06:47:41.442Z,99849.00
2023-04-20T06:50:10.824Z,99845.00
2023-04-20T06:52:39.025Z,99849.00
2023-04-20T06:55:07.626Z,99846.00
2023-04-20T06:57:38.396Z,99850.00
2023-04-20T07:00:10.348Z,99857.00
2023-04-20T07:02:46.130Z,99856.00
2023-04-20T07:05:14.634Z,99857.00
2023-04-20T07:07:42.926Z,99855.00
2023-04-20T07:10:13.101Z,99847.00
2023-04-20T07:12:43.779Z,99841.00
2023-04-20T07:15:12.509Z,99853.00
2023-04-20T07:17:40.490Z,99862.00
2023-04-20T07:20:10.207Z,99857.00
2023-04-20T07:22:39.373Z,99841.00
2023-04-20T07:25:09.792Z,99847.00
2023-04-20T07:27:39.678Z,99832.00
2023-04-20T07:30:11.366Z,99828.00
2023-04-20T07:32:41.916Z,99823.00
2023-04-20T07:35:11.025Z,99833.00
2023-04-20T07:37:38.908Z,99832.00
2023-04-20T07:40:08.703Z,99836.00
2023-04-20T07:42:37.469Z,99839.00
2023-04-20T07:45:08.403Z,99851.00
2023-04-20T07:47:36.532Z,99844.00
2023-04-20T07:50:05.174Z,99846.00
2023-04-20T07:52:33.209Z,99847.00
2023-04-20T07:55:01.252Z,99840.00
2023-04-20T07:57:30.387Z,99844.00
2023-04-20T07:59:58.355Z,99847.00
2023-04-20T08:02:27.672Z,99853.00
2023-04-20T08:04:56.072Z,99858.00
2023-04-20T08:07:24.762Z,99855.00
2023-04-20T08:09:52.645Z,99865.00
2023-04-20T08:12:20.510Z,99872.00
2023-04-20T08:14:48.332Z,99875.00
2023-04-20T08:17:16.183Z,99883.00
2023-04-20T08:19:46.163Z,99885.00
2023-04-20T08:22:14.223Z,99886.00
2023-04-20T08:24:42.088Z,99883.00
2023-04-20T08:27:10.208Z,99880.00
2023-04-20T08:29:39.554Z,99873.00
2023-04-20T08:32:08.973Z,99876.00
2023-04-20T08:34:37.330Z,99863.00
2023-04-20T08:37:06.998Z,99860.00
2023-04-20T08:39:34.914Z,99866.00
2023-04-20T08:42:03.261Z,99863.00
2023-04-20T08:44:31.358Z,99864.00
2023-04-20T08:47:00.963Z,99866.00
2023-04-20T08:49:30.619Z,99852.00
2023-04-20T08:51:58.538Z,99858.00
2023-04-20T08:54:27.770Z,99856.00
2023-04-20T08:56:56.743Z,99864.00
2023-04-20T08:59:24.615Z,99874.00
2023-04-20T09:01:52.513Z,99857.00
2023-04-20T09:04:23.524Z,99861.00
2023-04-20T09:06:54.556Z,99852.00
2023-04-20T09:09:25.200Z,99857.00
2023-04-20T09:12:03.787Z,99853.00
2023-04-20T09:14:42.668Z,99860.00
2023-04-20T09:17:14.160Z,99857.00
2023-04-20T09:19:45.256Z,99863.00
2023-04-20T09:22:13.743Z,99868.00
2023-04-20T09:24:42.687Z,99851.00
2023-04-20T09:27:21.688Z,99862.00
2023-04-20T09:29:58.644Z,99875.00
2023-04-20T09:32:29.324Z,99878.00
2023-04-20T09:34:57.635Z,99884.00
2023-04-20T09:37:25.772Z,99883.00
2023-04-20T09:40:01.152Z,99894.00
2023-04-20T09:42:33.669Z,99891.00
2023-04-20T09:45:03.649Z,99882.00
2023-04-20T09:47:32.114Z,99863.00
2023-04-20T09:50:10.295Z,99870.00
2023-04-20T09:52:49.954Z,99862.00
2023-04-20T09:55:18.150Z,99860.00
2023-04-20T09:57:48.621Z,99855.00
2023-04-20T10:00:17.968Z,99867.00
2023-04-20T10:02:48.550Z,99860.00
2023-04-20T10:05:16.975Z,99850.00
2023-04-20T10:07:45.660Z,99845.00
2023-04-20T10:10:16.548Z,99836.00
2023-04-20T10:12:54.062Z,99841.00
2023-04-20T10:15:22.580Z,99843.00
2023-04-20T10:17:51.381Z,99845.00
2023-04-20T10:20:22.547Z,99854.00
2023-04-20T10:22:52.664Z,99853.00
2023-04-20T10:25:27.941Z,99841.00
2023-04-20T10:28:00.943Z,99838.00
2023-04-20T10:30:30.509Z,99836.00
2023-04-20T10:33:07.050Z,99843.00
2023-04-20T10:35:48.700Z,99835.00
2023-04-20T10:38:28.309Z,99837.00
2023-04-20T10:40:56.671Z,99836.00
2023-04-20T10:43:25.869Z,99827.00
2023-04-20T10:45:53.784Z,99830.00
2023-04-20T10:48:21.748Z,99845.00
2023-04-20T10:50:49.779Z,99826.00
2023-04-20T10:53:23.066Z,99826.00
2023-04-20T10:55:59.991Z,99829.00
2023-04-20T10:58:29.495Z,99820.00
2023-04-20T11:01:02.465Z,99822.00
2023-04-20T11:03:32.616Z,99820.00
2023-04-20T11:06:03.424Z,99820.00
2023-04-20T11:08:39.700Z,99800.00
2023-04-20T11:11:19.712Z,99801.00
2023-04-20T11:13:49.320Z,99806.00
2023-04-20T11:16:19.401Z,99800.00
2023-04-20T11:18:56.349Z,99806.00
2023-04-20T11:21:24.691Z,99800.00
2023-04-20T11:23:52.745Z,99807.00
2023-04-20T11:26:20.815Z,99805.00
2023-04-20T11:28:56.226Z,99804.00
2023-04-20T11:31:25.446Z,99805.00
2023-04-20T11:33:53.929Z,99794.00
2023-04-20T11:36:23.355Z,99801.00
2023-04-20T11:38:51.846Z,99804.00
2023-04-20T11:41:19.858Z,99817.00
2023-04-20T11:43:49.088Z,99791.00
2023-04-20T11:46:20.614Z,99796.00
2023-04-20T11:48:49.376Z,99802.00
2023-04-20T11:51:17.334Z,99802.00
2023-04-20T11:53:45.211Z,99809.00
2023-04-20T11:56:13.026Z,99795.00
2023-04-20T11:58:40.882Z,99800.00
2023-04-20T12:01:08.804Z,99802.00
2023-04-20T12:03:38.067Z,99800.00
2023-04-20T12:06:06.540Z,99796.00
2023-04-20T12:08:34.411Z,99797.00
2023-04-20T12:11:02.281Z,99798.00
2023-04-20T12:13:30.155Z,99799.00
2023-04-20T12:15:58.075Z,99796.00
2023-04-20T12:18:26.072Z,99795.00
2023-04-20T12:20:55.270Z,99791.00
2023-04-20T12:23:23.109Z,99791.00
2023-04-20T12:25:51.320Z,99787.00
2023-04-20T12:28:19.288Z,99799.00
2023-04-20T12:30:47.293Z,99805.00
2023-04-20T12:33:15.163Z,99790.00
2023-04-20T12:35:43.025Z,99798.00
2023-04-20T12:38:14.447Z,99799.00
2023-04-20T12:40:42.659Z,99791.00
2023-04-20T12:43:10.669Z,99784.00
2023-04-20T12:45:38.575Z,99777.00
2023-04-20T12:48:06.739Z,99782.00
2023-04-20T12:50:34.726Z,99773.00
2023-04-20T12:53:03.587Z,99773.00
2023-04-20T12:55:32.905Z,99771.00
2023-04-20T12:58:00.794Z,99771.00
2023-04-20T13:00:28.730Z,99773.00
2023-04-20T13:02:56.699Z,99766.00
2023-04-20T13:05:24.662Z,99770.00
2023-04-20T13:07:52.667Z,99773.00
2023-04-20T13:10:20.554Z,99776.00
2023-04-20T13:12:51.685Z,99784.00
2023-04-20T13:15:31.744Z,99765.00
2023-04-20T13:18:06.971Z,99757.00
2023-04-20T13:20:35.114Z,99756.00
2023-04-20T13:23:05.063Z,99740.00
2023-04-20T13:25:34.428Z,99765.00
2023-04-20T13:28:04.955Z,99757.00
2023-04-20T13:30:33.128Z,99751.00
2023-04-20T13:33:01.224Z,99756.00
2023-04-20T13:35:29.306Z,99758.00
2023-04-20T13:37:57.474Z,99753.00
2023-04-20T13:40:25.731Z,99765.00
2023-04-20T13:42:53.597Z,99753.00
2023-04-20T13:45:22.807Z,99732.00
2023-04-20T13:47:51.102Z,99750.00
2023-04-20T13:50:18.994Z,99741.00
2023-04-20T13:52:47.006Z,99741.00
2023-04-20T13:55:14.869Z,99731.00
2023-04-20T13:57:43.517Z,99741.00
2023-04-20T14:00:12.601Z,99743.00
2023-04-20T14:02:42.183Z,99757.00
2023-04-20T14:05:10.686Z,99751.00
2023-04-20T14:07:38.868Z,99745.00
2023-04-20T14:10:08.842Z,99738.00
2023-04-20T14:12:36.825Z,99741.00
2023-04-20T14:15:05.659Z,99733.00
2023-04-20T14:17:33.566Z,99729.00
2023-04-20T14:20:03.697Z,99729.00
2023-04-20T14:22:35.862Z,99720.00
2023-04-20T14:25:04.515Z,99717.00
2023-04-20T14:27:32.555Z,99726.00
2023-04-20T14:30:00.568Z,99733.00
2023-04-20T14:32:28.514Z,99718.00
2023-04-20T14:34:56.392Z,99721.00
2023-04-20T14:37:27.257Z,99718.00
2023-04-20T14:39:55.265Z,99714.00
2023-04-20T14:42:23.870Z,99717.00
2023-04-20T14:44:51.820Z,99715.00
2023-04-20T14:47:20.671Z,99704.00
2023-04-20T14:49:48.558Z,99713.00
2023-04-20T14:52:16.636Z,99717.00
2023-04-20T14:54:45.850Z,99697.00
2023-04-20T14:57:13.699Z,99697.00
2023-04-20T14:59:42.112Z,99703.00
2023-04-20T15:02:10.088Z,99702.00
2023-04-20T15:04:38.158Z,99701.00
2023-04-20T15:07:06.261Z,99712.00
2023-04-20T15:09:34.769Z,99689.00
2023-04-20T15:12:04.560Z,99693.00
2023-04-20T15:14:32.381Z,99691.00
2023-04-20T15:17:00.227Z,99692.00
2023-04-20T15:19:28.105Z,99690.00
2023-04-20T15:21:55.973Z,99687.00
2023-04-20T15:24:23.902Z,99693.00
2023-04-20T15:26:52.863Z,99690.00
2023-04-20T15:29:22.029Z,99683.00
2023-04-20T15:31:50.023Z,99684.00
2023-04-20T15:34:18.156Z,99679.00
2023-04-20T15:36:46.412Z,99672.00
2023-04-20T15:39:14.250Z,99672.00
2023-04-20T15:41:42.346Z,99673.00
2023-04-20T15:44:10.325Z,99665.00
2023-04-20T15:46:39.712Z,99658.00
2023-04-20T15:49:07.595Z,99666.00
2023-04-20T15:51:35.503Z,99651.00
2023-04-20T15:54:03.350Z,99653.00
2023-04-20T15:56:31.721Z,99649.00
2023-04-20T15:58:59.591Z,99647.00
2023-04-20T16:01:27.576Z,99640.00
2023-04-20T16:03:57.112Z,99621.00
2023-04-20T16:06:25.229Z,99637.00
2023-04-20T16:08:54.033Z,99639.00
2023-04-20T16:11:22.674Z,99633.00
2023-04-20T16:13:50.595Z,99637.00
2023-04-20T16:16:18.733Z,99643.00
2023-04-20T16:18:46.961Z,99641.00
2023-04-20T16:21:16.275Z,99636.00
2023-04-20T16:23:44.326Z,99637.00
2023-04-20T16:26:12.481Z,99643.00
2023-04-20T16:28:40.694Z,99647.00
2023-04-20T16:31:08.602Z,99645.00
2023-04-20T16:33:37.898Z,99643.00
2023-04-20T16:36:06.428Z,99639.00
2023-04-20T16:38:35.693Z,99638.00
2023-04-20T16:41:03.654Z,99635.00
2023-04-20T16:43:31.737Z,99635.00
2023-04-20T16:46:00.206Z,99627.00
2023-04-20T16:48:28.120Z,99627.00
2023-04-20T16:50:56.009Z,99626.00
2023-04-20T16:53:23.820Z,99633.00
2023-04-20T16:55:53.134Z,99624.00
2023-04-20T16:58:21.517Z,99627.00
2023-04-20T17:00:49.432Z,99629.00
2023-04-20T17:03:17.542Z,99622.00
2023-04-20T17:05:46.525Z,99619.00
2023-04-20T17:08:14.387Z,99617.00
2023-04-20T17:10:42.250Z,99617.00
2023-04-20T17:13:11.414Z,99618.00
2023-04-20T17:15:40.045Z,99614.00
2023-04-20T17:18:08.001Z,99615.00
2023-04-20T17:20:35.896Z,99620.00
2023-04-20T17:23:03.771Z,99618.00
2023-04-20T17:25:31.804Z,99619.00
2023-04-20T17:27:59.817Z,99611.00
2023-04-20T17:30:29.853Z,99610.00
2023-04-20T17:32:59.253Z,99615.00
2023-04-20T17:35:27.340Z,99604.00
2023-04-20T17:37:55.509Z,99617.00
2023-04-20T17:40:23.474Z,99610.00
2023-04-20T17:42:51.300Z,99604.00
2023-04-20T17:45:19.421Z,99614.00
2023-04-20T17:47:48.674Z,99605.00
2023-04-20T17:50:17.493Z,99610.00
2023-04-20T17:52:45.358Z,99609.00
2023-04-20T17:55:13.405Z,99611.00
2023-04-20T17:57:41.517Z,99597.00
2023-04-20T18:00:11.848Z,99602.00
2023-04-20T18:02:40.595Z,99601.00
2023-04-20T18:05:11.049Z,99602.00
2023-04-20T18:07:39.134Z,99600.00
2023-04-20T18:10:10.875Z,99597.00
2023-04-20T18:12:39.684Z,99596.00
2023-04-20T18:15:09.353Z,99602.00
2023-04-20T18:17:37.280Z,99608.00
2023-04-20T18:20:06.790Z,99592.00
2023-04-20T18:22:36.944Z,99606.00
2023-04-20T18:25:05.904Z,99600.00
2023-04-20T18:27:33.769Z,99603.00
2023-04-20T18:30:01.760Z,99605.00
2023-04-20T18:32:30.959Z,99611.00
2023-04-20T18:35:00.245Z,99611.00
2023-04-20T18:37:28.192Z,99614.00
2023-04-20T18:39:57.463Z,99612.00
2023-04-20T18:42:25.949Z,99608.00
2023-04-20T18:44:55.944Z,99613.00
2023-04-20T18:47:26.330Z,99609.00
2023-04-20T18:49:54.307Z,99608.00
2023-04-20T18:52:23.027Z,99607.00
2023-04-20T18:54:51.733Z,99602.00
2023-04-20T18:57:23.896Z,99596.00
2023-04-20T18:59:51.747Z,99605.00
2023-04-20T19:02:20.244Z,99609.00
2023-04-20T19:04:48.202Z,99604.00
2023-04-20T19:07:16.132Z,99612.00
2023-04-20T19:09:44.081Z,99611.00
2023-04-20T19:12:12.158Z,99613.00
2023-04-20T19:14:41.354Z,99615.00
2023-04-20T19:17:09.328Z,99611.00
2023-04-20T19:19:37.267Z,99609.00
2023-04-20T19:22:05.467Z,99603.00
2023-04-20T19:24:34.225Z,99605.00
2023-04-20T19:27:02.181Z,99610.00
2023-04-20T19:29:30.101Z,99614.00
2023-04-20T19:31:59.307Z,99611.00
2023-04-20T19:34:27.284Z,99617.00
2023-04-20T19:36:55.349Z,99625.00
2023-04-20T19:39:23.229Z,99621.00
2023-04-20T19:41:51.121Z,99626.00
2023-04-20T19:44:19.386Z,99624.00
2023-04-20T19:46:47.593Z,99629.00
2023-04-20T19:49:17.167Z,99635.00
2023-04-20T19:51:45.388Z,99625.00
2023-04-20T19:54:16.535Z,99622.00
2023-04-20T19:56:44.563Z,99626.00
2023-04-20T19:59:12.464Z,99619.00
2023-04-20T20:01:40.472Z,99620.00
2023-04-20T20:04:08.765Z,99626.00
2023-04-20T20:06:38.678Z,99630.00
2023-04-20T20:09:06.841Z,99636.00
2023-04-20T20:11:34.760Z,99630.00
2023-04-20T20:14:02.805Z,99630.00
2023-04-20T20:16:30.987Z,99628.00
2023-04-20T20:18:59.821Z,99630.00
2023-04-20T20:21:27.717Z,99618.00
2023-04-20T20:23:57.136Z,99621.00
2023-04-20T20:26:25.068Z,99621.00
2023-04-20T20:28:53.292Z,99633.00
2023-04-20T20:31:21.652Z,99634.00
2023-04-20T20:33:49.721Z,99632.00
2023-04-20T20:36:17.880Z,99623.00
2023-04-20T20:38:45.918Z,99629.00
2023-04-20T20:41:16.274Z,99618.00
2023-04-20T20:43:45.722Z,99615.00
2023-04-20T20:46:13.851Z,99622.00
2023-04-20T20:48:41.879Z,99619.00
2023-04-20T20:51:09.779Z,99619.00
2023-04-20T20:53:37.642Z,99621.00
2023-04-20T20:56:05.960Z,99621.00
2023-04-20T20:58:35.183Z,99618.00
2023-04-20T21:01:03.105Z,99616.00
2023-04-20T21:03:31.325Z,99611.00
2023-04-20T21:05:59.233Z,99619.00
2023-04-20T21:08:27.086Z,99621.00
2023-04-20T21:10:54.942Z,99626.00
2023-04-20T21:13:22.781Z,99621.00
2023-04-20T21:15:51.975Z,99625.00
2023-04-20T21:18:19.828Z,99624.00
2023-04-20T21:20:47.682Z,99611.00
2023-04-20T21:23:15.773Z,99610.00
2023-04-20T21:25:43.613Z,99619.00
2023-04-20T21:28:11.433Z,99613.00
2023-04-20T21:30:39.290Z,99621.00
2023-04-20T21:33:08.526Z,99616.00
2023-04-20T21:35:36.379Z,99618.00
2023-04-20T21:38:04.711Z,99623.00
2023-04-20T21:40:34.118Z,99629.00
2023-04-20T21:43:02.056Z,99629.00
2023-04-20T21:45:29.908Z,99626.00
2023-04-20T21:47:57.820Z,99629.00
2023-04-20T21:50:27.370Z,99638.00
2023-04-20T21:52:55.642Z,99629.00
2023-04-20T21:55:23.511Z,99634.00
2023-04-20T21:57:51.398Z,99637.00
2023-04-20T22:00:19.340Z,99645.00
2023-04-20T22:02:48.291Z,99642.00
2023-04-20T22:05:17.208Z,99641.00
2023-04-20T22:07:46.709Z,99637.00
2023-04-20T22:10:14.626Z,99645.00
2023-04-20T22:12:43.210Z,99647.00
2023-04-20T22:15:14.400Z,99652.00
2023-04-20T22:17:45.296Z,99642.00
2023-04-20T22:20:16.687Z,99628.00
2023-04-20T22:22:46.008Z,99646.00
2023-04-20T22:25:14.128Z,99645.00
2023-04-20T22:27:42.079Z,99644.00
2023-04-20T22:30:10.833Z,99641.00
2023-04-20T22:32:39.091Z,99639.00
2023-04-20T22:35:07.934Z,99639.00
2023-04-20T22:37:35.951Z,99651.00
2023-04-20T22:40:07.553Z,99653.00
2023-04-20T22:42:35.954Z,99655.00
2023-04-20T22:45:04.518Z,99648.00
2023-04-20T22:47:32.435Z,99660.00
2023-04-20T22:50:00.292Z,99650.00
2023-04-20T22:52:28.128Z,99662.00
2023-04-20T22:54:56.337Z,99654.00
2023-04-20T22:57:25.667Z,99657.00
2023-04-20T22:59:53.546Z,99644.00
2023-04-20T23:02:21.514Z,99648.00
2023-04-20T23:04:49.372Z,99651.00
2023-04-20T23:07:19.369Z,99658.00
2023-04-20T23:09:47.877Z,99654.00
2023-04-20T23:12:16.380Z,99660.00
2023-04-20T23:14:45.555Z,99655.00
2023-04-20T23:17:13.452Z,99655.00
2023-04-20T23:19:41.300Z,99655.00
2023-04-20T23:22:09.743Z,99661.00
2023-04-20T23:24:37.647Z,99649.00
2023-04-20T23:27:05.874Z,99656.00
2023-04-20T23:29:33.852Z,99658.00
2023-04-20T23:32:03.255Z,99662.00
2023-04-20T23:34:31.498Z,99655.00
2023-04-20T23:36:59.664Z,99656.00
2023-04-20T23:39:27.625Z,99652.00
2023-04-20T23:41:56.124Z,99654.00
2023-04-20T23:44:24.012Z,99660.00
2023-04-20T23:46:51.934Z,99651.00
2023-04-20T23:49:21.321Z,99654.00
2023-04-20T23:51:49.295Z,99653.00
2023-04-20T23:54:17.183Z,99656.00
2023-04-20T23:56:45.214Z,99651.00
2023-04-20T23:59:13.082Z,99641.00
